Search for airport 
image banner adimage banner adimage banner ad
image banner ad

KSQL - San Carlos

Located in San Carlos, United States

ICAO - SQL, IATA -

Data provided by Airmate  

General information

Coordinates: N37°30'43" W122°14'58"
Elevation is 6 feet MSL.
Magnetic variation is 15° East
View others Airports in California

Operational data

Special qualification required
Current time UTC:
Current local time:
Weather
METAR: KSQL 221447Z 00000KT 10SM FEW010 OVC026 18/13 A2993
View NOTAMs / SUP AIP / TFR affecting this airport [VIEW]
Communications frequencies: [VIEW]

Runways:

RWY identifierQFULength (ft)Width (ft)SurfaceLDA (ft)
12138°262175ASPH
30318°262175ASPH

Airport contact information

Address: San Carlos United States

Other aviation service providers

Flight schools

West Valley Flying Club

West Valley Flying Club
mst@wvfc.org+1(650)856-2030

Jato Aviation

Jato Aviation
ops@jatoaviation.com+1(650)654-5286

San Carlos Flight Center

San Carlos Flight Center

Pelican Flight Training By Fly Bay Area

Pelican Flight Training By Fly Bay Area

Satellite view of KSQL